Terminal Aerodrome Forecast
Issued by NWS

Home | Current Version | Previous Version | Text Only | Print | Product List | Glossary On
Versions: 1 2 3 4 5 6 7 8 9 10 11 12 13 14
670
FTUS44 KCRP 192339
TAFALI
TAF
KALI 192339Z 2000/2024 VRB03KT P6SM OVC008
     FM200400 VRB02KT 5SM BR OVC005
     FM201000 VRB03KT 1SM BR OVC003
      TEMPO 2010/2013 1/2SM FG VV001
     FM201600 VRB04KT 5SM BR OVC005
     FM201800 10007KT P6SM OVC006
     FM202100 15012KT P6SM BKN009 OVC015=

USA.gov is the U.S. government's official web portal to all federal, state and local government web resources and services.